createdAt,value
2022-09-10T00:01:22.004Z,2.07
2022-09-10T00:03:50.113Z,2.27
2022-09-10T00:06:19.143Z,2.67
2022-09-10T00:08:46.994Z,2.70
2022-09-10T00:11:15.517Z,2.37
2022-09-10T00:13:43.182Z,1.77
2022-09-10T00:16:14.363Z,2.53
2022-09-10T00:18:42.176Z,2.10
2022-09-10T00:21:13.711Z,2.33
2022-09-10T00:23:40.942Z,2.33
2022-09-10T00:26:19.045Z,2.17
2022-09-10T00:28:46.312Z,2.30
2022-09-10T00:31:14.065Z,2.80
2022-09-10T00:33:42.275Z,1.70
2022-09-10T00:36:17.533Z,2.97
2022-09-10T00:38:44.646Z,2.20
2022-09-10T00:41:11.924Z,2.03
2022-09-10T00:44:04.808Z,2.40
2022-09-10T00:46:35.719Z,2.00
2022-09-10T00:49:12.315Z,2.10
2022-09-10T00:51:40.900Z,2.07
2022-09-10T00:54:08.377Z,2.43
2022-09-10T00:56:36.071Z,1.80
2022-09-10T00:59:05.577Z,3.70
2022-09-10T01:01:34.091Z,3.13
2022-09-10T01:04:02.622Z,2.47
2022-09-10T01:06:29.961Z,1.87
2022-09-10T01:08:57.195Z,2.33
2022-09-10T01:11:42.943Z,2.50
2022-09-10T01:14:37.932Z,2.27
2022-09-10T01:17:38.469Z,2.23
2022-09-10T01:20:24.941Z,2.13
2022-09-10T01:23:22.090Z,2.47
2022-09-10T01:26:09.486Z,2.53
2022-09-10T01:28:55.025Z,2.20
2022-09-10T01:31:40.004Z,2.30
2022-09-10T01:34:17.371Z,2.83
2022-09-10T01:36:49.217Z,2.00
2022-09-10T01:39:18.712Z,2.40
2022-09-10T01:41:46.016Z,2.60
2022-09-10T01:44:41.902Z,1.87
2022-09-10T01:47:35.312Z,2.33
2022-09-10T01:50:24.535Z,2.23
2022-09-10T01:52:58.597Z,2.00
2022-09-10T01:55:45.252Z,2.03
2022-09-10T01:58:24.235Z,2.10
2022-09-10T02:01:05.298Z,1.93
2022-09-10T02:03:34.106Z,2.17
2022-09-10T02:06:03.749Z,2.27
2022-09-10T02:08:35.284Z,1.80
2022-09-10T02:11:06.620Z,2.07
2022-09-10T02:13:34.524Z,2.27
2022-09-10T02:16:03.465Z,2.20
2022-09-10T02:18:32.969Z,2.10
2022-09-10T02:21:02.924Z,3.00
2022-09-10T02:23:40.688Z,2.30
2022-09-10T02:26:07.753Z,2.20
2022-09-10T02:28:34.529Z,1.87
2022-09-10T02:31:02.121Z,2.70
2022-09-10T02:33:28.903Z,1.70
2022-09-10T02:35:58.929Z,2.57
2022-09-10T02:38:25.668Z,1.97
2022-09-10T02:40:52.810Z,3.00
2022-09-10T02:43:20.170Z,2.13
2022-09-10T02:45:46.959Z,1.97
2022-09-10T02:48:14.014Z,1.97
2022-09-10T02:50:41.468Z,2.27
2022-09-10T02:53:09.170Z,2.20
2022-09-10T02:55:36.201Z,2.80
2022-09-10T02:58:02.897Z,2.93
2022-09-10T03:00:32.872Z,2.07
2022-09-10T03:03:02.908Z,2.57
2022-09-10T03:05:30.313Z,2.13
2022-09-10T03:07:57.280Z,1.70
2022-09-10T03:10:25.056Z,2.10
2022-09-10T03:12:52.132Z,2.30
2022-09-10T03:15:21.081Z,1.80
2022-09-10T03:17:47.743Z,2.37
2022-09-10T03:20:15.234Z,1.90
2022-09-10T03:22:41.916Z,2.20
2022-09-10T03:25:09.086Z,2.60
2022-09-10T03:27:36.171Z,3.00
2022-09-10T03:30:03.504Z,1.80
2022-09-10T03:32:32.216Z,2.23
2022-09-10T03:35:00.106Z,2.03
2022-09-10T03:37:26.928Z,2.87
2022-09-10T03:39:53.747Z,2.30
2022-09-10T03:42:20.481Z,2.53
2022-09-10T03:44:47.181Z,2.87
2022-09-10T03:47:14.611Z,3.70
2022-09-10T03:49:41.289Z,2.90
2022-09-10T03:52:08.576Z,2.80
2022-09-10T03:54:35.946Z,2.50
2022-09-10T03:57:03.579Z,2.43
2022-09-10T03:59:30.307Z,3.40
2022-09-10T04:01:57.748Z,2.60
2022-09-10T04:04:24.507Z,3.20
2022-09-10T04:06:53.448Z,3.20
2022-09-10T04:09:20.131Z,3.23
2022-09-10T04:11:47.231Z,3.00
2022-09-10T04:14:15.683Z,2.77
2022-09-10T04:16:42.823Z,3.30
2022-09-10T04:19:09.567Z,3.07
2022-09-10T04:21:36.291Z,2.30
2022-09-10T04:24:03.182Z,2.40
2022-09-10T04:26:30.387Z,2.47
2022-09-10T04:28:57.453Z,2.90
2022-09-10T04:31:24.204Z,3.67
2022-09-10T04:33:51.007Z,3.20
2022-09-10T04:36:17.789Z,3.53
2022-09-10T04:38:44.746Z,3.33
2022-09-10T04:41:12.176Z,3.90
2022-09-10T04:43:38.875Z,3.50
2022-09-10T04:46:05.685Z,3.87
2022-09-10T04:48:33.931Z,3.60
2022-09-10T04:51:15.712Z,3.13
2022-09-10T04:53:43.602Z,2.87
2022-09-10T04:56:10.498Z,3.67
2022-09-10T04:58:39.077Z,3.23
2022-09-10T05:01:06.716Z,2.60
2022-09-10T05:03:34.428Z,3.07
2022-09-10T05:06:01.461Z,3.10
2022-09-10T05:08:28.493Z,2.93
2022-09-10T05:10:55.187Z,2.87
2022-09-10T05:13:22.992Z,2.73
2022-09-10T05:15:50.360Z,3.20
2022-09-10T05:18:17.503Z,2.43
2022-09-10T05:20:45.037Z,2.73
2022-09-10T05:23:12.156Z,2.60
2022-09-10T05:25:39.255Z,3.93
2022-09-10T05:28:06.550Z,1.93
2022-09-10T05:30:33.316Z,2.57
2022-09-10T05:33:01.624Z,2.20
2022-09-10T05:35:29.127Z,1.93
2022-09-10T05:37:59.502Z,2.27
2022-09-10T05:40:26.839Z,3.17
2022-09-10T05:42:54.175Z,2.37
2022-09-10T05:45:21.791Z,2.17
2022-09-10T05:47:49.158Z,2.00
2022-09-10T05:50:17.335Z,2.20
2022-09-10T05:52:44.616Z,1.93
2022-09-10T05:55:11.486Z,1.80
2022-09-10T05:57:40.665Z,1.50
2022-09-10T06:00:09.702Z,1.67
2022-09-10T06:02:37.064Z,2.07
2022-09-10T06:05:04.664Z,1.87
2022-09-10T06:07:32.750Z,1.83
2022-09-10T06:10:00.600Z,2.00
2022-09-10T06:12:27.341Z,1.90
2022-09-10T06:14:54.807Z,1.43
2022-09-10T06:17:21.523Z,1.87
2022-09-10T06:19:48.226Z,2.00
2022-09-10T06:22:15.060Z,1.47
2022-09-10T06:24:42.518Z,1.67
2022-09-10T06:27:10.046Z,1.47
2022-09-10T06:29:37.126Z,2.17
2022-09-10T06:32:04.537Z,1.80
2022-09-10T06:34:32.394Z,1.57
2022-09-10T06:36:59.458Z,1.83
2022-09-10T06:39:28.152Z,1.70
2022-09-10T06:41:54.946Z,1.90
2022-09-10T06:44:22.434Z,1.20
2022-09-10T06:47:28.293Z,1.37
2022-09-10T06:49:36.920Z,1.80
2022-09-10T06:52:04.149Z,1.60
2022-09-10T06:54:30.855Z,1.23
2022-09-10T06:56:58.120Z,1.80
2022-09-10T06:59:25.029Z,1.90
2022-09-10T07:01:52.114Z,1.63
2022-09-10T07:04:18.849Z,1.40
2022-09-10T07:06:48.110Z,1.70
2022-09-10T07:09:15.903Z,1.33
2022-09-10T07:11:43.404Z,1.70
2022-09-10T07:14:13.980Z,1.50
2022-09-10T07:16:42.971Z,1.70
2022-09-10T07:19:17.950Z,1.47
2022-09-10T07:21:45.257Z,2.03
2022-09-10T07:24:12.571Z,2.07
2022-09-10T07:26:39.356Z,1.63
2022-09-10T07:29:06.643Z,2.00
2022-09-10T07:31:35.739Z,1.53
2022-09-10T07:34:04.027Z,1.67
2022-09-10T07:36:31.729Z,1.80
2022-09-10T07:39:01.497Z,1.43
2022-09-10T07:41:30.361Z,1.50
2022-09-10T07:43:57.912Z,1.93
2022-09-10T07:46:25.836Z,2.20
2022-09-10T07:48:57.975Z,1.60
2022-09-10T07:51:27.576Z,1.77
2022-09-10T07:53:56.626Z,1.77
2022-09-10T07:56:27.606Z,1.23
2022-09-10T07:58:55.503Z,1.53
2022-09-10T08:01:22.491Z,1.40
2022-09-10T08:03:49.394Z,1.20
2022-09-10T08:06:17.389Z,1.30
2022-09-10T08:08:44.179Z,1.37
2022-09-10T08:11:13.559Z,1.37
2022-09-10T08:13:42.167Z,1.50
2022-09-10T08:16:13.819Z,1.07
2022-09-10T08:18:41.066Z,1.20
2022-09-10T08:21:08.919Z,1.50
2022-09-10T08:23:35.784Z,1.40
2022-09-10T08:26:04.505Z,1.17
2022-09-10T08:28:34.449Z,1.20
2022-09-10T08:31:11.707Z,1.40
2022-09-10T08:33:39.788Z,2.10
2022-09-10T08:36:12.078Z,1.70
2022-09-10T08:38:40.215Z,1.60
2022-09-10T08:41:13.838Z,1.80
2022-09-10T08:43:58.244Z,1.37
2022-09-10T08:46:29.397Z,1.70
2022-09-10T08:49:14.708Z,1.73
2022-09-10T08:51:57.070Z,1.60
2022-09-10T08:54:53.307Z,1.70
2022-09-10T08:57:30.685Z,1.43
2022-09-10T09:00:01.551Z,2.03
2022-09-10T09:02:52.695Z,1.40
2022-09-10T09:05:22.878Z,1.90
2022-09-10T09:07:51.400Z,1.73
2022-09-10T09:11:04.175Z,1.53
2022-09-10T09:13:55.513Z,1.43
2022-09-10T09:16:43.988Z,1.63
2022-09-10T09:19:35.003Z,2.70
2022-09-10T09:22:08.723Z,1.70
2022-09-10T09:24:50.378Z,1.80
2022-09-10T09:27:20.172Z,1.93
2022-09-10T09:30:17.019Z,1.87
2022-09-10T09:36:37.012Z,1.50
2022-09-10T09:40:06.777Z,1.90
2022-09-10T09:43:18.622Z,1.87
2022-09-10T09:45:56.629Z,2.10
2022-09-10T10:57:30.475Z,1.70
2022-09-10T11:00:04.001Z,1.43
2022-09-10T11:02:58.290Z,1.93
2022-09-10T11:05:34.352Z,1.93
2022-09-10T11:08:09.942Z,1.57
2022-09-10T11:10:45.087Z,1.90
2022-09-10T11:20:45.559Z,1.30
2022-09-10T11:31:19.393Z,1.40
2022-09-10T11:53:28.279Z,1.50
2022-09-10T11:56:23.445Z,1.40
2022-09-10T11:59:27.714Z,1.40
2022-09-10T12:02:18.101Z,2.23
2022-09-10T12:05:23.586Z,1.77
2022-09-10T12:08:46.081Z,1.57
2022-09-10T12:11:19.838Z,2.03
2022-09-10T12:13:50.145Z,1.37
2022-09-10T12:16:23.942Z,1.57
2022-09-10T12:18:54.715Z,1.73
2022-09-10T12:21:42.931Z,1.87
2022-09-10T12:24:34.239Z,1.47
2022-09-10T12:27:03.438Z,1.40
2022-09-10T12:29:33.555Z,1.43
2022-09-10T12:32:12.743Z,1.50
2022-09-10T12:34:43.165Z,1.80
2022-09-10T12:37:41.586Z,2.90
2022-09-10T12:40:26.586Z,2.60
2022-09-10T12:43:18.850Z,2.50
2022-09-10T12:46:25.657Z,2.73
2022-09-10T12:48:58.589Z,2.60
2022-09-10T12:51:52.820Z,3.07
2022-09-10T12:54:44.264Z,2.90
2022-09-10T12:57:20.369Z,2.33
2022-09-10T13:00:15.389Z,2.47
2022-09-10T13:03:15.290Z,2.83
2022-09-10T13:05:44.980Z,3.23
2022-09-10T13:08:53.204Z,2.60
2022-09-10T13:11:24.897Z,2.93
2022-09-10T13:14:00.310Z,3.50
2022-09-10T13:16:27.484Z,2.30
2022-09-10T13:19:13.435Z,3.37
2022-09-10T13:21:48.606Z,2.20
2022-09-10T13:24:56.352Z,2.30
2022-09-10T13:27:42.058Z,2.60
2022-09-10T13:30:21.161Z,2.27
2022-09-10T13:32:55.883Z,1.80
2022-09-10T13:36:07.442Z,1.83
2022-09-10T13:39:03.524Z,1.87
2022-09-10T13:41:33.110Z,2.10
2022-09-10T13:44:11.840Z,1.83
2022-09-10T13:46:50.683Z,1.60
2022-09-10T13:49:29.229Z,2.20
2022-09-10T13:51:59.382Z,2.10
2022-09-10T13:54:49.615Z,1.57
2022-09-10T13:57:29.915Z,4.97
2022-09-10T14:00:18.928Z,26.27
2022-09-10T14:02:48.414Z,31.23
2022-09-10T14:05:23.591Z,2.30
2022-09-10T14:07:51.900Z,2.47
2022-09-10T14:10:18.803Z,3.90
2022-09-10T14:12:51.556Z,3.03
2022-09-10T14:15:23.659Z,2.10
2022-09-10T14:17:57.454Z,1.90
2022-09-10T14:20:29.462Z,2.47
2022-09-10T14:23:05.641Z,2.40
2022-09-10T14:25:40.396Z,1.93
2022-09-10T14:28:23.898Z,5.00
2022-09-10T14:30:53.090Z,1.70
2022-09-10T14:33:36.994Z,1.70
2022-09-10T14:36:15.231Z,1.50
2022-09-10T14:38:44.665Z,4.40
2022-09-10T14:41:26.748Z,1.97
2022-09-10T14:44:20.829Z,2.53
2022-09-10T14:47:08.017Z,2.00
2022-09-10T14:49:38.325Z,2.43
2022-09-10T14:52:13.189Z,1.87
2022-09-10T14:54:42.257Z,1.50
2022-09-10T14:57:16.870Z,1.40
2022-09-10T14:59:47.215Z,1.50
2022-09-10T15:02:22.287Z,1.43
2022-09-10T15:04:50.505Z,1.40
2022-09-10T15:07:17.340Z,1.37
2022-09-10T15:09:46.490Z,1.43
2022-09-10T15:12:24.164Z,1.70
2022-09-10T15:14:51.925Z,1.73
2022-09-10T15:17:18.828Z,2.20
2022-09-10T15:19:47.122Z,2.20
2022-09-10T15:22:21.523Z,2.17
2022-09-10T15:25:08.558Z,2.47
2022-09-10T15:27:35.990Z,2.87
2022-09-10T15:30:03.448Z,1.40
2022-09-10T15:32:34.642Z,1.83
2022-09-10T15:35:01.648Z,2.20
2022-09-10T15:37:28.785Z,2.13
2022-09-10T15:39:57.641Z,1.93
2022-09-10T15:42:24.853Z,1.30
2022-09-10T15:44:51.579Z,1.40
2022-09-10T15:47:18.459Z,1.87
2022-09-10T15:49:45.247Z,2.00
2022-09-10T15:52:11.920Z,1.70
2022-09-10T15:54:39.516Z,3.73
2022-09-10T15:57:07.254Z,2.47
2022-09-10T15:59:34.174Z,1.90
2022-09-10T16:02:00.869Z,2.63
2022-09-10T16:04:33.823Z,2.50
2022-09-10T16:07:03.365Z,2.73
2022-09-10T16:09:30.491Z,2.10
2022-09-10T16:11:57.224Z,3.40
2022-09-10T16:14:24.382Z,2.80
2022-09-10T16:16:51.189Z,2.33
2022-09-10T16:19:18.426Z,2.23
2022-09-10T16:21:48.693Z,2.23
2022-09-10T16:24:19.101Z,2.13
2022-09-10T16:26:48.412Z,2.50
2022-09-10T16:29:19.626Z,2.30
2022-09-10T16:31:46.940Z,2.40
2022-09-10T16:34:18.896Z,2.30
2022-09-10T16:36:56.011Z,2.73
2022-09-10T16:39:23.465Z,2.10
2022-09-10T16:41:53.675Z,2.40
2022-09-10T16:44:20.733Z,2.60
2022-09-10T16:46:50.581Z,1.83
2022-09-10T16:49:19.604Z,2.33
2022-09-10T16:51:49.380Z,2.10
2022-09-10T16:54:19.549Z,2.20
2022-09-10T16:56:47.659Z,3.00
2022-09-10T16:59:20.566Z,3.50
2022-09-10T17:01:48.959Z,3.60
2022-09-10T17:04:23.416Z,4.00
2022-09-10T17:07:13.623Z,4.73
2022-09-10T17:09:45.501Z,4.33
2022-09-10T17:12:15.727Z,3.27
2022-09-10T17:14:48.125Z,4.00
2022-09-10T17:17:15.056Z,4.30
2022-09-10T17:19:43.666Z,4.90
2022-09-10T17:22:11.281Z,4.40
2022-09-10T17:24:39.302Z,6.53
2022-09-10T17:27:22.421Z,6.50
2022-09-10T17:29:55.744Z,7.67
2022-09-10T17:32:26.999Z,5.40
2022-09-10T17:34:57.690Z,4.80
2022-09-10T17:37:27.288Z,5.03
2022-09-10T17:39:57.091Z,6.80
2022-09-10T17:42:30.775Z,5.37
2022-09-10T17:45:02.354Z,5.70
2022-09-10T17:48:28.311Z,5.93
2022-09-10T18:12:04.805Z,9.47
2022-09-10T18:14:37.520Z,9.80
2022-09-10T18:19:52.720Z,9.87
2022-09-10T18:22:26.643Z,9.40
2022-09-10T18:24:57.318Z,8.63
2022-09-10T18:30:19.673Z,9.70
2022-09-10T18:32:51.656Z,9.60
2022-09-10T18:35:30.302Z,9.43
2022-09-10T19:00:29.983Z,12.90
2022-09-10T19:19:31.919Z,5.93
2022-09-10T19:30:04.127Z,6.73
2022-09-10T19:38:42.057Z,8.00
2022-09-10T19:41:15.752Z,8.87
2022-09-10T19:43:42.542Z,8.90
2022-09-10T19:46:10.768Z,8.43
2022-09-10T19:48:37.715Z,7.87
2022-09-10T19:51:05.338Z,8.50
2022-09-10T19:53:37.654Z,8.53
2022-09-10T19:56:11.576Z,8.10
2022-09-10T19:58:38.764Z,8.37
2022-09-10T20:01:09.878Z,8.00
2022-09-10T20:03:38.191Z,8.93
2022-09-10T20:06:05.739Z,8.67
2022-09-10T20:08:35.792Z,8.00
2022-09-10T20:11:06.286Z,9.30
2022-09-10T20:13:34.496Z,8.10
2022-09-10T20:16:06.588Z,9.00
2022-09-10T20:18:38.545Z,8.67
2022-09-10T20:21:14.685Z,9.90
2022-09-10T20:23:43.663Z,9.70
2022-09-10T20:26:21.439Z,11.07
2022-09-10T20:29:04.223Z,10.00
2022-09-10T20:31:32.988Z,9.37
2022-09-10T20:34:06.052Z,9.03
2022-09-10T20:36:35.195Z,9.10
2022-09-10T20:39:02.637Z,10.63
2022-09-10T20:41:32.717Z,9.53
2022-09-10T20:44:05.604Z,10.27
2022-09-10T20:46:34.214Z,10.30
2022-09-10T20:49:06.509Z,10.77
2022-09-10T20:51:48.892Z,10.33
2022-09-10T20:54:21.500Z,12.10
2022-09-10T20:56:53.704Z,11.10
2022-09-10T20:59:27.751Z,10.33
2022-09-10T21:01:58.180Z,10.47
2022-09-10T21:04:36.630Z,11.30
2022-09-10T21:07:04.154Z,11.50
2022-09-10T21:09:34.940Z,11.70
2022-09-10T21:12:05.409Z,11.80
2022-09-10T21:14:34.736Z,11.00
2022-09-10T21:17:04.545Z,13.70
2022-09-10T21:19:34.913Z,12.23
2022-09-10T21:22:05.859Z,11.50
2022-09-10T21:24:33.778Z,10.90
2022-09-10T21:27:04.444Z,10.70
2022-09-10T21:29:31.348Z,10.87
2022-09-10T21:32:01.200Z,8.67
2022-09-10T21:34:28.648Z,9.40
2022-09-10T21:37:08.534Z,8.70
2022-09-10T21:39:36.090Z,9.20
2022-09-10T21:42:06.522Z,8.53
2022-09-10T21:44:35.663Z,9.27
2022-09-10T21:47:03.262Z,7.87
2022-09-10T21:49:35.736Z,8.70
2022-09-10T21:52:04.019Z,7.87
2022-09-10T21:54:35.829Z,6.73
2022-09-10T21:57:04.277Z,6.70
2022-09-10T21:59:35.829Z,8.07
2022-09-10T22:02:13.287Z,7.57
2022-09-10T22:04:40.304Z,6.00
2022-09-10T22:07:10.593Z,6.65
2022-09-10T22:09:38.019Z,6.93
2022-09-10T22:12:05.493Z,6.18
2022-09-10T22:14:44.638Z,5.97
2022-09-10T22:17:13.665Z,7.38
2022-09-10T22:19:47.568Z,5.95
2022-09-10T22:22:26.016Z,5.80
2022-09-10T22:24:53.798Z,5.43
2022-09-10T22:27:24.115Z,5.85
2022-09-10T22:29:53.626Z,6.50
2022-09-10T22:32:21.020Z,5.55
2022-09-10T22:34:52.875Z,7.13
2022-09-10T22:37:21.389Z,6.03
2022-09-10T22:39:49.102Z,7.50
2022-09-10T22:42:16.497Z,5.97
2022-09-10T22:44:43.736Z,5.60
2022-09-10T22:47:12.323Z,5.53
2022-09-10T22:49:40.791Z,6.00
2022-09-10T22:52:07.818Z,5.47
2022-09-10T22:54:37.998Z,6.72
2022-09-10T22:57:12.617Z,5.38
2022-09-10T22:59:43.205Z,6.95
2022-09-10T23:02:10.591Z,6.85
2022-09-10T23:04:38.104Z,7.00
2022-09-10T23:07:12.852Z,7.22
2022-09-10T23:12:38.906Z,6.30
2022-09-10T23:15:25.631Z,6.80
2022-09-10T23:17:58.021Z,6.97
2022-09-10T23:20:25.717Z,6.63
2022-09-10T23:22:57.335Z,7.32
2022-09-10T23:25:25.264Z,7.40
2022-09-10T23:27:55.137Z,7.43
2022-09-10T23:30:23.319Z,8.60
2022-09-10T23:35:36.896Z,7.88
2022-09-10T23:38:04.173Z,8.80
2022-09-10T23:40:37.002Z,8.30
2022-09-10T23:43:03.933Z,8.75
2022-09-10T23:45:31.666Z,7.70
2022-09-10T23:48:01.123Z,7.72
2022-09-10T23:50:29.284Z,6.72
2022-09-10T23:52:58.380Z,8.52
2022-09-10T23:55:32.679Z,7.50
2022-09-10T23:58:00.410Z,7.70
